Latest Coastal Weather Observations for Bunbury

IDW60701

Issued at 4:13 pm WST Wednesday 22 February 2017 (issued every 10 minutes, with the page automatically refreshed every 10 minutes)

About coastal observations | Map of coastal stations | Coastal observations for WA | Marine services | Other Formats
Station Details ID: 009965 Name: BUNBURY Lat: -33.36 Lon: 115.64 Height: 5.2 m
Data from the previous 72 hours. | See also: Recent months at Bunbury
Date/Time
WST
Temp
°C
Wind Pressure Rain since
9am
mm
Weather Cloud Vis
km
Sea
Height
m
Swell
Dir  Spd
kts
Gust
kts
hPa Trend Height
m
Period
s
Dir
22/04:00pm 21.5 W 8 12 1020.4 - 0.0 - - - - - - -
22/03:30pm 20.9 W 9 13 1020.6 - 0.0 - - - - - - -
22/03:00pm 21.5 W 8 12 1020.8 - 0.0 - - - - - - -
22/02:30pm 21.1 W 9 12 1021.1 - 0.0 - - - - - - -
22/02:00pm 21.6 W 8 13 1021.2 - 0.0 - - - - - - -
22/01:30pm 21.3 WNW 8 11 1021.4 - 0.0 - - - - - - -
22/01:00pm 21.0 WNW 8 11 1021.5 - 0.0 - - - - - - -
22/12:30pm 20.7 WNW 7 11 1021.5 - 0.0 - - - - - - -
22/12:00pm 20.6 WNW 7 10 1021.5 - 0.0 - - - - - - -
22/11:30am 21.4 WNW 7 10 1021.7 - 0.0 - - - - - - -
22/11:00am 20.8 WSW 5 9 1021.7 - 0.0 - - - - - - -
22/10:30am 20.2 W 5 8 1021.6 - 0.0 - - - - - - -
22/10:00am 19.5 WSW 6 10 1021.8 - 0.0 - - - - - - -
22/09:30am 19.1 WSW 5 7 1021.7 - 0.0 - - - - - - -
22/09:00am 18.1 SW 1 4 1021.9 - 0.2 - - - - - - -
22/08:30am 16.9 S 1 3 1021.7 - 0.2 - - - - - - -
22/08:00am 16.0 ESE 2 3 1021.3 - 0.2 - - - - - - -
22/07:30am 14.8 ESE 2 3 1020.9 - 0.2 - - - - - - -
22/07:00am 14.3 SE 1 2 1020.5 - 0.2 - - - - - - -
22/06:30am 13.7 E 2 2 1020.3 - 0.2 - - - - - - -
22/06:00am 14.2 CALM 0 3 1020.1 - 0.2 - - - - - - -
22/05:30am 12.9 ESE 2 3 1020.0 - 0.2 - - - - - - -
22/05:00am 12.7 ESE 4 5 1019.7 - 0.2 - - - - - - -
22/04:30am 12.1 ESE 1 3 1019.5 - 0.2 - - - - - - -
22/04:00am 11.4 E 1 3 1019.2 - 0.2 - - - - - - -
22/03:30am 10.6 CALM 0 0 1019.0 - 0.2 - - - - - - -
22/03:00am 10.6 CALM 0 0 1018.8 - 0.2 - - - - - - -
22/02:30am 11.5 ESE 1 2 1019.0 - 0.2 - - - - - - -
22/02:00am 12.3 E 2 3 1019.1 - 0.2 - - - - - - -
22/01:30am 12.2 ESE 2 5 1019.2 - 0.2 - - - - - - -
22/01:00am 11.6 E 1 2 1019.0 - 0.2 - - - - - - -
22/12:30am 10.9 S 2 3 1019.1 - 0.2 - - - - - - -
22/12:00am 11.4 S 2 3 1019.0 - 0.2 - - - - - - -
 
Date/Time
WST
Temp
°C
Wind Pressure Rain since
9am
mm
Weather Cloud Vis
km
Sea
Height
m
Swell
Dir  Spd
kts
Gust
kts
hPa Trend Height
m
Period
s
Dir
21/11:30pm 10.9 SSW 2 3 1019.2 - 0.2 - - - - - - -
21/11:00pm 11.1 CALM 0 1 1019.3 - 0.2 - - - - - - -
21/10:30pm 12.0 S 2 3 1019.2 - 0.2 - - - - - - -
21/10:00pm 13.4 S 2 3 1019.3 - 0.2 - - - - - - -
21/09:30pm 13.8 SSW 2 3 1019.3 - 0.2 - - - - - - -
21/09:00pm 14.5 S 3 5 1019.0 - 0.2 - - - - - - -
21/08:30pm 15.0 S 4 6 1018.6 - 0.2 - - - - - - -
21/08:00pm 15.6 S 5 8 1018.4 - 0.2 - - - - - - -
21/07:30pm 16.3 S 6 9 1017.9 - 0.2 - - - - - - -
21/07:00pm 17.2 SSW 9 13 1017.5 - 0.2 - - - - - - -
21/06:30pm 18.3 SSW 10 16 1016.8 - 0.2 - - - - - - -
21/06:00pm 19.1 SSW 11 19 1016.4 - 0.2 - - - - - - -
21/05:30pm 20.3 SSW 11 18 1015.9 - 0.2 - - - - - - -
21/05:00pm 20.2 SW 14 21 1015.6 - 0.2 - - - - - - -
21/04:30pm 20.4 SW 13 22 1015.3 - 0.2 - - - - - - -
21/04:00pm 20.9 SW 13 21 1015.2 - 0.2 - - - - - - -
21/03:30pm 20.5 WSW 15 24 1015.2 - 0.2 - - - - - - -
21/03:00pm 20.7 WSW 13 20 1015.0 - 0.2 - - - - - - -
21/02:42pm 20.5 SW 15 25 1015.0 - 0.2 - - - - - - -
21/02:30pm 20.7 SW 15 22 1015.1 - 0.2 - - - - - - -
21/02:00pm 21.4 WSW 14 22 1015.2 - 0.2 - - - - - - -
21/01:30pm 21.1 WSW 14 22 1015.1 - 0.2 - - - - - - -
21/01:00pm 20.5 SW 15 23 1014.9 - 0.2 - - - - - - -
21/12:30pm 20.7 WSW 14 21 1014.6 - 0.2 - - - - - - -
21/12:00pm 20.3 WSW 14 22 1014.7 - 0.2 - - - - - - -
21/11:30am 20.0 WSW 12 21 1014.7 - 0.2 - - - - - - -
21/11:00am 20.6 SW 14 23 1014.4 - 0.2 - - - - - - -
21/10:30am 20.0 SW 12 20 1014.4 - 0.0 - - - - - - -
21/10:00am - SW 12 20 1014.5 - 0.0 - - - - - - -
21/09:30am - SW 13 21 1014.3 - 0.0 - - - - - - -
21/09:00am - SW 13 21 1014.1 - 1.2 - - - - - - -
21/08:30am - SW 14 23 1013.8 - 1.2 - - - - - - -
21/08:00am - SSW 12 19 1013.2 - 1.2 - - - - - - -
21/07:30am - SW 13 22 1012.7 - 1.2 - - - - - - -
21/07:00am - SW 10 22 1012.1 - 1.2 - - - - - - -
21/06:30am - SSW 7 12 1011.8 - 1.2 - - - - - - -
21/06:00am - SSW 8 12 1011.4 - 1.2 - - - - - - -
21/05:30am - SSW 9 13 1011.0 - 1.2 - - - - - - -
21/05:00am 14.8 SSW 8 13 1010.5 - 1.2 - - - - - - -
21/04:30am 14.8 SSW 6 10 1010.3 - 1.2 - - - - - - -
21/04:00am 15.0 SW 16 26 1010.2 - 1.2 - - - - - - -
21/03:49am 15.9 SW 15 26 1009.9 - 1.0 - - - - - - -
21/03:30am 16.7 W 12 18 1009.9 - 0.6 - - - - - - -
21/03:00am 16.8 WNW 9 15 1009.9 - 0.0 - - - - - - -
21/02:30am 16.3 W 10 19 1010.2 - 0.0 - - - - - - -
21/02:00am 18.6 W 10 15 1010.4 - 0.0 - - - - - - -
21/01:30am 18.2 W 9 15 1010.8 - 0.0 - - - - - - -
21/01:00am 17.8 W 7 10 1011.2 - 0.0 - - - - - - -
21/12:30am 18.0 W 9 13 1011.8 - 0.0 - - - - - - -
21/12:00am 17.3 SSW 1 3 1011.9 - 0.0 - - - - - - -
 
Date/Time
WST
Temp
°C
Wind Pressure Rain since
9am
mm
Weather Cloud Vis
km
Sea
Height
m
Swell
Dir  Spd
kts
Gust
kts
hPa Trend Height
m
Period
s
Dir
20/11:30pm 17.8 SW 3 5 1012.4 - 0.0 - - - - - - -
20/11:00pm 18.0 WSW 5 8 1012.6 - 0.0 - - - - - - -
20/10:30pm 17.4 SW 5 9 1012.8 - 0.0 - - - - - - -
20/10:00pm 17.2 WSW 5 7 1012.7 - 0.0 - - - - - - -
20/09:30pm 17.6 WSW 5 8 1012.5 - 0.0 - - - - - - -
20/09:00pm 17.3 SSW 5 8 1012.6 - 0.0 - - - - - - -
20/08:30pm 17.8 SW 8 14 1012.4 - 0.0 - - - - - - -
20/08:00pm 18.6 SW 12 18 1012.6 - 0.0 - - - - - - -
20/07:30pm 18.8 SW 12 20 1012.0 - 0.0 - - - - - - -
20/07:00pm 19.4 WSW 12 17 1011.5 - 0.0 - - - - - - -
20/06:30pm 19.8 WSW 10 18 1011.0 - 0.0 - - - - - - -
20/06:00pm 20.8 SW 10 16 1010.6 - 0.0 - - - - - - -
20/05:30pm 21.3 SW 11 17 1010.3 - 0.0 - - - - - - -
20/05:00pm 21.9 WSW 14 19 1010.5 - 0.0 - - - - - - -
20/04:30pm 21.9 WSW 13 23 1010.5 - 0.0 - - - - - - -
20/04:00pm 23.0 WSW 12 20 1010.6 - 0.0 - - - - - - -
20/03:30pm 22.6 W 13 23 1010.9 - 0.0 - - - - - - -
20/03:00pm 21.9 W 16 23 1011.0 - 0.0 - - - - - - -
20/02:30pm 22.7 W 14 21 1011.1 - 0.0 - - - - - - -
20/02:00pm 23.3 W 13 19 1011.3 - 0.0 - - - - - - -
20/01:30pm 23.4 W 13 19 1011.8 - 0.0 - - - - - - -
20/01:00pm 23.7 W 12 17 1012.2 - 0.0 - - - - - - -
20/12:30pm 24.1 W 10 16 1012.3 - 0.0 - - - - - - -
20/12:00pm 23.6 W 11 15 1012.5 - 0.0 - - - - - - -
20/11:30am 24.4 W 9 14 1012.9 - 0.0 - - - - - - -
20/11:00am 23.8 S 7 14 1013.3 - 0.0 - - - - - - -
20/10:30am 23.4 SSW 8 12 1013.6 - 0.0 - - - - - - -
20/10:00am 21.9 S 9 14 1014.0 - 0.0 - - - - - - -
20/09:30am 20.8 S 7 13 1014.1 - 0.0 - - - - - - -
20/09:00am 21.3 S 9 15 1014.2 - 0.0 - - - - - - -
20/08:30am 19.1 S 10 17 1014.4 - 0.0 - - - - - - -
20/08:00am 19.0 SSE 7 11 1014.4 - 0.0 - - - - - - -
20/07:30am 18.3 SSE 5 7 1014.4 - 0.0 - - - - - - -
20/07:00am 17.1 SSE 4 6 1014.4 - 0.0 - - - - - - -
20/06:30am 15.9 SSE 3 5 1014.2 - 0.0 - - - - - - -
20/06:00am 15.8 S 4 6 1014.0 - 0.0 - - - - - - -
20/05:30am 15.9 S 4 5 1013.7 - 0.0 - - - - - - -
20/05:00am 16.3 S 6 7 1013.5 - 0.0 - - - - - - -
20/04:30am 16.6 S 5 8 1013.3 - 0.0 - - - - - - -
20/04:00am 17.1 S 6 9 1013.2 - 0.0 - - - - - - -
20/03:30am 17.5 SSW 6 9 1013.1 - 0.0 - - - - - - -
20/03:00am 17.9 S 6 9 1012.8 - 0.0 - - - - - - -
20/02:30am 18.3 S 6 8 1012.6 - 0.0 - - - - - - -
20/02:00am 18.7 SSW 6 9 1012.5 - 0.0 - - - - - - -
20/01:30am 19.2 S 5 8 1012.5 - 0.0 - - - - - - -
20/01:00am 19.7 S 6 10 1012.6 - 0.0 - - - - - - -
20/12:30am 20.1 S 6 9 1012.8 - 0.0 - - - - - - -
20/12:00am 20.9 S 7 10 1012.9 - 0.0 - - - - - - -
 
Date/Time
WST
Temp
°C
Wind Pressure Rain since
9am
mm
Weather Cloud Vis
km
Sea
Height
m
Swell
Dir  Spd
kts
Gust
kts
hPa Trend Height
m
Period
s
Dir
19/11:30pm 21.6 SSW 8 12 1013.2 - 0.0 - - - - - - -
19/11:00pm 21.9 SSW 5 7 1013.1 - 0.0 - - - - - - -
19/10:30pm 22.3 S 4 6 1013.1 - 0.0 - - - - - - -
19/10:00pm 23.0 S 5 7 1013.1 - 0.0 - - - - - - -
19/09:30pm 24.0 S 5 7 1013.0 - 0.0 - - - - - - -
19/09:00pm 24.9 S 7 10 1012.8 - 0.0 - - - - - - -
19/08:30pm 24.8 S 4 7 1012.6 - 0.0 - - - - - - -
19/08:00pm 24.6 SW 7 11 1012.1 - 0.0 - - - - - - -
19/07:30pm 25.1 SW 7 11 1011.9 - 0.0 - - - - - - -
19/07:00pm 25.3 SW 5 8 1011.7 - 0.0 - - - - - - -
19/06:30pm 26.7 WSW 4 8 1011.5 - 0.0 - - - - - - -
19/06:00pm 27.5 WSW 4 7 1011.3 - 0.0 - - - - - - -
19/05:30pm 28.4 WSW 4 7 1011.5 - 0.0 - - - - - - -
19/05:00pm 28.8 SW 7 10 1011.7 - 0.0 - - - - - - -
19/04:30pm 28.9 WSW 7 11 1011.8 - 0.0 - - - - - - -

Other Formats:

Comma delimited format used in spreadsheet applications
http://www.bom.gov.au/fwo/IDW60701/IDW60701.94604.axf

JavaScript Object Notation format (JSON) in row-major order
http://www.bom.gov.au/fwo/IDW60701/IDW60701.94604.json